ヨハネスブルグ の空港の天気 - METARとTAF

ヨハネスブルグ/O.R.タンボ国際空港 ( FAOR / JNB ) - 南アフリカ ヨハネスブルグ
飛行場実況気象(Metar)
観測時間10/26 10:30 SAST (10/26 08:30 UTC)
風向・風速北 7m/s
視程4000m
天気現象霧雨 もや
全天を覆う雲 雲底高度 90m
気温14℃
湿度100%
気圧1027hPa
METARFAOR 260830Z 01014KT 4000 DZ BR OVC003 14/14 Q1027 BECMG 5000 BKN005
過去の天気等 Google飛行場航空写真 Wunderground天気予報

過去48時間のMETAR

飛行場予報(TAF)
発表時間: 10/26 09:15 SAST (10/26 07:15 UTC)
予報対象時間: 26日8時 SAST ~ 27日14時 SAST
風向・風速北北東 6m/s
視程3000m
天気現象弱い霧雨 もや
全天を覆う雲 雲底高度 120m
26日10時 SAST ~ 26日12時 SAST に徐々に
視程10km以上
全天の8割程度の雲 雲底高度 460m
26日12時 SAST から
風向・風速北 5m/s
視程10km以上
全天の8割程度の雲 雲底高度 760m
26日20時 SAST ~ 26日22時 SAST に徐々に
風向・風速東 5m/s
27日0時 SAST ~ 27日2時 SAST に徐々に
全天の8割程度の雲 雲底高度 300m
27日2時 SAST ~ 27日8時 SAST に 確率 40% で一時的に
視程4000m
天気現象もや
全天の8割程度の雲 雲底高度 120m
27日10時 SAST ~ 27日12時 SAST に徐々に
風向・風速北北東 6m/s
全天の4割程度の雲 雲底高度 910m
TAF AMD FAOR 260715Z 2606/2712 03012KT 3000 -DZ BR OVC004 TX21/2612Z TN13/2703Z
BECMG 2608/2610 9999 BKN015
FM261000 36010KT 9999 BKN025
BECMG 2618/2620 08010KT
BECMG 2622/2700 BKN010
PROB40 TEMPO 2700/2706 4000 BR BKN004
BECMG 2708/2710 02012KT SCT030